createdAt,value
2022-11-17T00:00:43.398Z,10.90
2022-11-17T00:03:15.813Z,10.90
2022-11-17T00:05:44.537Z,11.00
2022-11-17T00:08:12.169Z,11.00
2022-11-17T00:10:39.576Z,11.00
2022-11-17T00:13:25.722Z,10.90
2022-11-17T00:15:53.120Z,10.90
2022-11-17T00:18:39.038Z,10.90
2022-11-17T00:21:23.467Z,10.90
2022-11-17T00:23:51.110Z,11.00
2022-11-17T00:26:23.925Z,11.10
2022-11-17T00:28:56.068Z,11.10
2022-11-17T00:31:43.593Z,11.10
2022-11-17T00:34:17.409Z,11.10
2022-11-17T00:36:47.137Z,11.10
2022-11-17T00:39:16.057Z,11.10
2022-11-17T00:41:43.895Z,11.00
2022-11-17T00:44:11.591Z,11.00
2022-11-17T00:46:39.853Z,10.90
2022-11-17T00:49:08.345Z,11.00
2022-11-17T00:51:36.153Z,11.00
2022-11-17T00:54:04.895Z,11.00
2022-11-17T00:56:32.696Z,11.00
2022-11-17T00:59:00.410Z,11.00
2022-11-17T01:01:28.132Z,11.00
2022-11-17T01:04:03.186Z,11.00
2022-11-17T01:06:34.097Z,11.00
2022-11-17T01:09:07.252Z,11.00
2022-11-17T01:11:34.668Z,11.00
2022-11-17T01:14:02.395Z,11.00
2022-11-17T01:16:31.246Z,11.00
2022-11-17T01:19:02.685Z,11.00
2022-11-17T01:21:31.531Z,11.10
2022-11-17T01:24:00.794Z,11.00
2022-11-17T01:26:34.469Z,11.00
2022-11-17T01:29:03.778Z,11.00
2022-11-17T01:31:38.118Z,11.00
2022-11-17T01:34:06.454Z,11.10
2022-11-17T01:36:55.215Z,11.10
2022-11-17T01:39:23.886Z,11.10
2022-11-17T01:41:52.053Z,11.10
2022-11-17T01:44:41.103Z,11.00
2022-11-17T01:47:34.470Z,11.10
2022-11-17T01:50:16.746Z,11.10
2022-11-17T01:52:45.489Z,11.00
2022-11-17T01:55:13.080Z,11.00
2022-11-17T01:57:47.862Z,11.00
2022-11-17T02:00:22.776Z,11.10
2022-11-17T02:02:51.702Z,11.00
2022-11-17T02:05:22.022Z,11.00
2022-11-17T02:07:52.622Z,11.00
2022-11-17T02:10:20.386Z,11.00
2022-11-17T02:12:48.818Z,11.00
2022-11-17T02:15:16.239Z,11.00
2022-11-17T02:17:44.118Z,11.00
2022-11-17T02:20:41.747Z,11.00
2022-11-17T02:23:31.003Z,11.00
2022-11-17T02:26:30.133Z,11.00
2022-11-17T02:29:24.402Z,11.00
2022-11-17T02:32:03.490Z,11.00
2022-11-17T02:34:57.199Z,10.90
2022-11-17T02:37:27.298Z,11.00
2022-11-17T02:40:03.789Z,10.90
2022-11-17T02:42:59.075Z,10.80
2022-11-17T02:45:35.883Z,10.80
2022-11-17T02:48:10.378Z,10.80
2022-11-17T02:50:40.302Z,10.70
2022-11-17T02:53:08.415Z,10.60
2022-11-17T02:55:38.464Z,10.50
2022-11-17T02:58:13.375Z,10.40
2022-11-17T03:00:54.023Z,10.30
2022-11-17T03:03:45.781Z,10.20
2022-11-17T03:06:20.542Z,10.10
2022-11-17T03:09:08.667Z,9.90
2022-11-17T03:11:49.311Z,9.90
2022-11-17T03:14:32.171Z,9.80
2022-11-17T03:17:28.356Z,9.70
2022-11-17T03:20:12.383Z,9.60
2022-11-17T03:23:04.614Z,9.60
2022-11-17T03:25:34.830Z,9.50
2022-11-17T03:28:07.648Z,9.40
2022-11-17T03:30:38.009Z,9.40
2022-11-17T03:33:15.126Z,9.40
2022-11-17T03:36:08.225Z,9.40
2022-11-17T03:38:40.788Z,9.30
2022-11-17T03:41:11.209Z,9.30
2022-11-17T03:43:40.973Z,9.30
2022-11-17T03:46:13.160Z,9.30
2022-11-17T03:48:50.398Z,9.20
2022-11-17T03:51:36.205Z,9.20
2022-11-17T03:54:03.924Z,9.20
2022-11-17T03:56:33.997Z,9.20
2022-11-17T03:59:19.777Z,9.20
2022-11-17T04:01:47.314Z,9.20
2022-11-17T04:04:19.845Z,9.20
2022-11-17T04:06:48.121Z,9.20
2022-11-17T04:09:18.758Z,9.20
2022-11-17T04:12:08.707Z,9.20
2022-11-17T04:14:54.547Z,9.20
2022-11-17T04:17:22.169Z,9.20
2022-11-17T04:19:49.498Z,9.10
2022-11-17T04:22:16.872Z,9.20
2022-11-17T04:24:44.216Z,9.20
2022-11-17T04:27:29.978Z,9.20
2022-11-17T04:29:57.352Z,9.10
2022-11-17T04:32:24.709Z,9.10
2022-11-17T04:34:52.073Z,9.20
2022-11-17T04:37:19.414Z,9.10
2022-11-17T04:39:46.848Z,9.10
2022-11-17T04:42:14.144Z,9.10
2022-11-17T04:44:41.846Z,9.10
2022-11-17T04:47:09.171Z,9.10
2022-11-17T04:49:36.611Z,9.10
2022-11-17T04:52:04.133Z,9.10
2022-11-17T04:54:31.523Z,9.10
2022-11-17T04:56:58.857Z,9.10
2022-11-17T04:59:26.409Z,9.10
2022-11-17T05:01:53.898Z,9.10
2022-11-17T05:04:39.776Z,9.10
2022-11-17T05:07:08.393Z,9.10
2022-11-17T05:09:36.067Z,9.10
2022-11-17T05:12:22.375Z,9.10
2022-11-17T05:14:50.478Z,9.10
2022-11-17T05:17:18.108Z,9.10
2022-11-17T05:19:47.865Z,9.10
2022-11-17T05:22:41.106Z,9.10
2022-11-17T05:25:09.702Z,9.10
2022-11-17T05:27:37.784Z,9.10
2022-11-17T05:30:07.484Z,9.10
2022-11-17T05:32:34.817Z,9.10
2022-11-17T05:35:02.158Z,9.10
2022-11-17T05:37:29.569Z,9.10
2022-11-17T05:39:56.890Z,9.10
2022-11-17T05:42:24.287Z,9.10
2022-11-17T05:44:51.752Z,9.10
2022-11-17T05:47:19.194Z,9.00
2022-11-17T05:49:46.535Z,9.00
2022-11-17T05:52:13.994Z,9.00
2022-11-17T05:54:41.338Z,9.00
2022-11-17T05:57:13.405Z,9.00
2022-11-17T05:59:42.986Z,9.00
2022-11-17T06:02:19.396Z,9.00
2022-11-17T06:04:49.772Z,9.00
2022-11-17T06:07:19.453Z,9.00
2022-11-17T06:09:47.207Z,8.90
2022-11-17T06:12:15.359Z,8.90
2022-11-17T06:14:43.349Z,8.90
2022-11-17T06:17:23.667Z,9.00
2022-11-17T06:19:57.820Z,8.90
2022-11-17T06:22:26.879Z,8.90
2022-11-17T06:24:55.497Z,8.90
2022-11-17T06:27:23.537Z,8.90
2022-11-17T06:29:51.595Z,8.80
2022-11-17T06:32:19.790Z,8.80
2022-11-17T06:34:54.852Z,8.80
2022-11-17T06:37:24.607Z,8.90
2022-11-17T06:39:52.273Z,8.80
2022-11-17T06:42:19.602Z,8.90
2022-11-17T06:44:46.938Z,8.80
2022-11-17T06:47:14.264Z,8.90
2022-11-17T06:49:41.648Z,8.90
2022-11-17T06:52:11.039Z,8.80
2022-11-17T06:54:38.438Z,8.90
2022-11-17T06:57:05.753Z,8.90
2022-11-17T06:59:33.115Z,8.90
2022-11-17T07:02:00.421Z,8.90
2022-11-17T07:04:27.762Z,8.80
2022-11-17T07:06:55.102Z,8.80
2022-11-17T07:09:22.537Z,8.90
2022-11-17T07:11:49.876Z,8.80
2022-11-17T07:14:18.284Z,8.80
2022-11-17T07:16:45.614Z,8.80
2022-11-17T07:19:13.271Z,8.90
2022-11-17T07:21:40.629Z,8.80
2022-11-17T07:24:08.715Z,8.80
2022-11-17T07:26:36.143Z,8.80
2022-11-17T07:29:03.619Z,8.90
2022-11-17T07:31:30.993Z,8.80
2022-11-17T07:33:58.797Z,8.80
2022-11-17T07:36:26.170Z,8.80
2022-11-17T07:38:53.568Z,8.80
2022-11-17T07:41:20.966Z,8.80
2022-11-17T07:43:48.362Z,8.80
2022-11-17T07:46:15.864Z,8.80
2022-11-17T07:48:44.854Z,8.80
2022-11-17T07:51:14.031Z,8.80
2022-11-17T07:53:41.553Z,8.80
2022-11-17T07:56:11.053Z,8.90
2022-11-17T07:58:39.373Z,8.90
2022-11-17T08:01:09.287Z,8.80
2022-11-17T08:03:37.135Z,8.80
2022-11-17T08:06:06.263Z,8.80
2022-11-17T08:08:34.300Z,8.90
2022-11-17T08:11:12.810Z,8.90
2022-11-17T08:13:41.367Z,8.90
2022-11-17T08:16:10.019Z,8.90
2022-11-17T08:18:40.424Z,8.80
2022-11-17T08:21:16.285Z,8.90
2022-11-17T08:23:43.645Z,8.90
2022-11-17T08:26:11.667Z,8.90
2022-11-17T08:28:39.599Z,8.90
2022-11-17T08:31:07.942Z,8.90
2022-11-17T08:33:36.015Z,8.90
2022-11-17T08:36:04.772Z,9.00
2022-11-17T08:38:32.306Z,9.00
2022-11-17T08:41:03.356Z,9.00
2022-11-17T08:43:31.109Z,9.00
2022-11-17T08:45:58.539Z,9.00
2022-11-17T08:48:26.168Z,9.10
2022-11-17T08:50:53.563Z,9.00
2022-11-17T08:53:23.016Z,9.00
2022-11-17T08:55:51.825Z,9.00
2022-11-17T08:58:19.380Z,9.10
2022-11-17T09:00:47.501Z,9.10
2022-11-17T09:03:15.571Z,9.10
2022-11-17T09:05:47.076Z,9.10
2022-11-17T09:08:44.422Z,9.10
2022-11-17T09:11:08.648Z,9.10
2022-11-17T09:13:36.867Z,9.20
2022-11-17T09:16:09.799Z,9.20
2022-11-17T09:18:39.221Z,9.20
2022-11-17T09:21:09.570Z,9.20
2022-11-17T09:23:37.400Z,9.20
2022-11-17T09:26:07.264Z,9.30
2022-11-17T09:28:35.222Z,9.20
2022-11-17T09:31:08.329Z,9.30
2022-11-17T09:33:36.586Z,9.30
2022-11-17T09:36:04.858Z,9.30
2022-11-17T09:38:32.356Z,9.30
2022-11-17T09:41:02.126Z,9.30
2022-11-17T09:43:34.497Z,9.30
2022-11-17T09:46:13.636Z,9.30
2022-11-17T09:48:57.418Z,9.30
2022-11-17T09:51:29.745Z,9.40
2022-11-17T09:54:08.021Z,9.30
2022-11-17T09:56:35.508Z,9.40
2022-11-17T09:59:06.240Z,9.40
2022-11-17T10:01:33.575Z,9.40
2022-11-17T10:04:01.473Z,9.40
2022-11-17T10:06:30.985Z,9.50
2022-11-17T10:09:26.000Z,9.50
2022-11-17T10:11:58.863Z,9.50
2022-11-17T10:14:28.752Z,9.60
2022-11-17T10:16:58.715Z,9.60
2022-11-17T10:19:31.597Z,9.50
2022-11-17T10:22:01.794Z,9.60
2022-11-17T10:24:42.741Z,9.60
2022-11-17T10:27:28.221Z,9.60
2022-11-17T10:30:20.861Z,9.70
2022-11-17T10:32:51.744Z,9.70
2022-11-17T10:35:24.396Z,9.70
2022-11-17T10:37:56.524Z,9.70
2022-11-17T10:40:45.818Z,9.70
2022-11-17T10:43:13.182Z,9.80
2022-11-17T10:45:47.971Z,9.80
2022-11-17T10:48:35.864Z,9.80
2022-11-17T10:51:03.384Z,9.90
2022-11-17T10:53:30.842Z,9.90
2022-11-17T10:56:14.402Z,10.00
2022-11-17T10:59:08.241Z,10.10
2022-11-17T11:01:38.791Z,10.20
2022-11-17T11:04:25.684Z,10.20
2022-11-17T11:07:19.358Z,10.20
2022-11-17T11:10:02.918Z,10.30
2022-11-17T11:13:07.616Z,10.40
2022-11-17T11:15:36.788Z,10.60
2022-11-17T11:18:16.034Z,10.60
2022-11-17T11:20:59.871Z,10.60
2022-11-17T11:23:45.388Z,10.60
2022-11-17T11:26:39.829Z,10.60
2022-11-17T11:29:22.977Z,10.70
2022-11-17T11:32:27.162Z,10.70
2022-11-17T11:34:57.379Z,10.80
2022-11-17T11:37:35.596Z,10.90
2022-11-17T11:40:15.039Z,10.90
2022-11-17T11:42:50.130Z,10.90
2022-11-17T11:45:17.668Z,10.90
2022-11-17T11:47:53.908Z,10.90
2022-11-17T11:50:25.433Z,10.90
2022-11-17T11:53:24.849Z,10.90
2022-11-17T11:56:03.590Z,10.80
2022-11-17T11:58:30.990Z,10.80
2022-11-17T12:01:08.638Z,10.90
2022-11-17T12:03:54.075Z,10.80
2022-11-17T12:06:41.416Z,10.90
2022-11-17T12:09:39.671Z,10.90
2022-11-17T12:12:28.987Z,10.90
2022-11-17T12:15:18.257Z,10.90
2022-11-17T12:18:00.568Z,10.90
2022-11-17T12:20:35.639Z,10.90
2022-11-17T12:23:06.668Z,10.90
2022-11-17T12:25:36.065Z,10.90
2022-11-17T12:28:30.026Z,11.00
2022-11-17T12:31:02.606Z,11.00
2022-11-17T12:33:54.119Z,11.10
2022-11-17T12:36:30.108Z,11.10
2022-11-17T12:39:07.142Z,11.20
2022-11-17T12:41:49.733Z,11.30
2022-11-17T12:44:38.487Z,11.30
2022-11-17T12:47:15.324Z,11.30
2022-11-17T12:50:10.043Z,11.30
2022-11-17T12:52:37.401Z,11.30
2022-11-17T12:55:29.976Z,11.40
2022-11-17T12:58:20.678Z,11.30
2022-11-17T13:01:20.382Z,11.30
2022-11-17T13:03:51.218Z,11.30
2022-11-17T13:06:35.037Z,11.20
2022-11-17T13:09:06.647Z,11.30
2022-11-17T13:11:34.655Z,11.20
2022-11-17T13:14:14.958Z,11.20
2022-11-17T13:16:50.550Z,11.20
2022-11-17T13:19:37.956Z,11.20
2022-11-17T13:22:17.049Z,11.20
2022-11-17T13:24:49.841Z,11.20
2022-11-17T13:27:27.964Z,11.20
2022-11-17T13:30:24.762Z,11.30
2022-11-17T13:32:52.603Z,11.30
2022-11-17T13:35:32.359Z,11.40
2022-11-17T13:38:05.639Z,11.40
2022-11-17T13:40:35.774Z,11.40
2022-11-17T13:43:05.088Z,11.40
2022-11-17T13:45:32.486Z,11.50
2022-11-17T13:47:59.826Z,11.50
2022-11-17T13:50:27.124Z,11.40
2022-11-17T13:52:57.725Z,11.50
2022-11-17T13:55:27.341Z,11.40
2022-11-17T13:58:04.227Z,11.40
2022-11-17T14:00:32.472Z,11.50
2022-11-17T14:03:03.254Z,11.50
2022-11-17T14:05:33.851Z,11.50
2022-11-17T14:08:22.168Z,11.50
2022-11-17T14:10:49.702Z,11.50
2022-11-17T14:13:23.341Z,11.50
2022-11-17T14:15:57.454Z,11.50
2022-11-17T14:18:38.192Z,11.50
2022-11-17T14:21:17.264Z,11.40
2022-11-17T14:23:45.317Z,11.50
2022-11-17T14:26:23.922Z,11.50
2022-11-17T14:28:52.186Z,11.50
2022-11-17T14:31:19.663Z,11.50
2022-11-17T14:33:47.156Z,11.50
2022-11-17T14:36:16.709Z,11.60
2022-11-17T14:38:45.504Z,11.60
2022-11-17T14:41:17.722Z,11.60
2022-11-17T14:43:45.445Z,11.60
2022-11-17T14:46:33.079Z,11.60
2022-11-17T14:49:00.668Z,11.60
2022-11-17T14:51:28.096Z,11.60
2022-11-17T14:53:55.425Z,11.60
2022-11-17T14:56:24.679Z,11.60
2022-11-17T14:58:58.015Z,11.60
2022-11-17T15:01:29.361Z,11.60
2022-11-17T15:03:59.111Z,11.60
2022-11-17T15:06:27.230Z,11.60
2022-11-17T15:08:56.635Z,11.60
2022-11-17T15:11:25.601Z,11.60
2022-11-17T15:13:53.121Z,11.60
2022-11-17T15:16:20.607Z,11.60
2022-11-17T15:18:49.313Z,11.60
2022-11-17T15:21:17.042Z,11.60
2022-11-17T15:23:45.128Z,11.50
2022-11-17T15:26:18.771Z,11.40
2022-11-17T15:28:46.231Z,11.50
2022-11-17T15:31:16.775Z,11.50
2022-11-17T15:33:45.989Z,11.50
2022-11-17T15:36:18.900Z,11.50
2022-11-17T15:38:47.486Z,11.50
2022-11-17T15:41:15.934Z,11.40
2022-11-17T15:43:45.474Z,11.40
2022-11-17T15:46:15.602Z,11.50
2022-11-17T15:48:44.515Z,11.50
2022-11-17T15:51:14.620Z,11.50
2022-11-17T15:53:43.489Z,11.50
2022-11-17T15:56:16.627Z,11.50
2022-11-17T15:58:44.938Z,11.50
2022-11-17T16:01:16.665Z,11.50
2022-11-17T16:03:45.287Z,11.40
2022-11-17T16:06:12.951Z,11.40
2022-11-17T16:08:40.333Z,11.40
2022-11-17T16:11:07.940Z,11.40
2022-11-17T16:13:35.454Z,11.40
2022-11-17T16:16:03.683Z,11.40
2022-11-17T16:18:33.850Z,11.40
2022-11-17T16:21:06.842Z,11.50
2022-11-17T16:23:39.396Z,11.40
2022-11-17T16:26:07.372Z,11.40
2022-11-17T16:28:35.315Z,11.30
2022-11-17T16:31:23.856Z,11.30
2022-11-17T16:34:06.041Z,11.30
2022-11-17T16:36:36.918Z,11.30
2022-11-17T16:39:07.276Z,11.30
2022-11-17T16:41:37.051Z,11.30
2022-11-17T16:44:09.471Z,11.20
2022-11-17T16:46:37.624Z,11.20
2022-11-17T16:49:07.050Z,11.20
2022-11-17T16:51:34.691Z,11.20
2022-11-17T16:54:07.053Z,11.10
2022-11-17T16:56:34.883Z,11.10
2022-11-17T16:59:02.289Z,11.10
2022-11-17T17:01:32.410Z,11.00
2022-11-17T17:04:01.757Z,11.00
2022-11-17T17:06:29.425Z,10.90
2022-11-17T17:08:59.338Z,10.90
2022-11-17T17:11:29.203Z,10.90
2022-11-17T17:13:56.766Z,10.80
2022-11-17T17:16:24.937Z,10.80
2022-11-17T17:18:59.515Z,10.80
2022-11-17T17:21:28.660Z,10.80
2022-11-17T17:23:56.199Z,10.80
2022-11-17T17:26:25.941Z,10.70
2022-11-17T17:28:56.292Z,10.70
2022-11-17T17:31:25.094Z,10.70
2022-11-17T17:33:54.380Z,10.70
2022-11-17T17:36:24.645Z,10.60
2022-11-17T17:38:56.260Z,10.60
2022-11-17T17:41:29.286Z,10.60
2022-11-17T17:44:05.157Z,10.60
2022-11-17T17:46:36.099Z,10.70
2022-11-17T17:49:04.091Z,10.60
2022-11-17T17:51:31.675Z,10.60
2022-11-17T17:54:02.069Z,10.60
2022-11-17T17:56:30.680Z,10.50
2022-11-17T17:58:58.808Z,10.50
2022-11-17T18:01:28.985Z,10.50
2022-11-17T18:04:01.359Z,10.50
2022-11-17T18:06:28.859Z,10.50
2022-11-17T18:08:57.873Z,10.40
2022-11-17T18:11:25.852Z,10.40
2022-11-17T18:13:54.313Z,10.40
2022-11-17T18:16:27.307Z,10.40
2022-11-17T18:19:00.036Z,10.40
2022-11-17T18:21:28.709Z,10.40
2022-11-17T18:23:57.719Z,10.40
2022-11-17T18:26:28.154Z,10.40
2022-11-17T18:28:58.018Z,10.30
2022-11-17T18:31:27.839Z,10.30
2022-11-17T18:34:00.875Z,10.30
2022-11-17T18:36:29.577Z,10.30
2022-11-17T18:38:58.593Z,10.20
2022-11-17T18:41:27.394Z,10.20
2022-11-17T18:43:55.263Z,10.20
2022-11-17T18:46:24.823Z,10.20
2022-11-17T18:48:58.367Z,10.20
2022-11-17T18:51:28.015Z,10.10
2022-11-17T18:53:57.561Z,10.10
2022-11-17T18:56:27.796Z,10.10
2022-11-17T18:58:55.224Z,10.10
2022-11-17T19:01:27.999Z,10.10
2022-11-17T19:03:57.676Z,10.10
2022-11-17T19:06:25.632Z,10.00
2022-11-17T19:08:53.855Z,10.00
2022-11-17T19:11:22.377Z,10.00
2022-11-17T19:13:50.183Z,10.00
2022-11-17T19:16:23.219Z,10.00
2022-11-17T19:18:52.841Z,10.00
2022-11-17T19:21:27.539Z,10.00
2022-11-17T19:23:57.759Z,10.00
2022-11-17T19:26:27.861Z,10.10
2022-11-17T19:29:03.794Z,10.00
2022-11-17T19:31:32.080Z,10.00
2022-11-17T19:33:59.871Z,10.00
2022-11-17T19:36:32.095Z,10.00
2022-11-17T19:39:01.270Z,10.00
2022-11-17T19:41:31.707Z,10.00
2022-11-17T19:44:00.691Z,10.00
2022-11-17T19:46:29.021Z,9.90
2022-11-17T19:48:57.804Z,9.90
2022-11-17T19:51:26.589Z,9.90
2022-11-17T19:53:55.835Z,9.90
2022-11-17T19:56:25.302Z,9.80
2022-11-17T19:58:53.815Z,9.80
2022-11-17T20:01:26.627Z,9.70
2022-11-17T20:03:55.227Z,9.70
2022-11-17T20:06:27.464Z,9.70
2022-11-17T20:08:57.320Z,9.70
2022-11-17T20:11:27.354Z,9.70
2022-11-17T20:13:55.580Z,9.60
2022-11-17T20:16:25.089Z,9.60
2022-11-17T20:18:57.805Z,9.60
2022-11-17T20:21:26.253Z,9.60
2022-11-17T20:23:54.628Z,9.60
2022-11-17T20:26:30.306Z,9.50
2022-11-17T20:28:58.944Z,9.50
2022-11-17T20:31:31.754Z,9.50
2022-11-17T20:34:00.978Z,9.50
2022-11-17T20:36:30.597Z,9.40
2022-11-17T20:39:00.520Z,9.40
2022-11-17T20:41:28.697Z,9.40
2022-11-17T20:43:58.079Z,9.40
2022-11-17T20:46:26.125Z,9.40
2022-11-17T20:48:53.506Z,9.40
2022-11-17T20:51:23.447Z,9.40
2022-11-17T20:53:51.185Z,9.40
2022-11-17T20:56:19.271Z,9.30
2022-11-17T20:58:46.914Z,9.40
2022-11-17T21:01:20.571Z,9.40
2022-11-17T21:03:48.387Z,9.30
2022-11-17T21:06:16.218Z,9.30
2022-11-17T21:08:44.649Z,9.30
2022-11-17T21:11:36.786Z,9.30
2022-11-17T21:14:06.259Z,9.30
2022-11-17T21:16:34.604Z,9.30
2022-11-17T21:19:02.210Z,9.20
2022-11-17T21:21:29.681Z,9.20
2022-11-17T21:23:57.225Z,9.30
2022-11-17T21:26:24.721Z,9.30
2022-11-17T21:28:52.635Z,9.30
2022-11-17T21:31:24.096Z,9.30
2022-11-17T21:33:54.446Z,9.30
2022-11-17T21:36:23.924Z,9.30
2022-11-17T21:38:51.973Z,9.30
2022-11-17T21:41:21.785Z,9.30
2022-11-17T21:43:51.927Z,9.30
2022-11-17T21:46:20.510Z,9.30
2022-11-17T21:48:48.089Z,9.30
2022-11-17T21:51:15.430Z,9.30
2022-11-17T21:53:43.114Z,9.30
2022-11-17T21:56:11.504Z,9.30
2022-11-17T21:58:39.181Z,9.30
2022-11-17T22:01:14.873Z,9.30
2022-11-17T22:03:43.025Z,9.30
2022-11-17T22:06:18.084Z,9.40
2022-11-17T22:08:47.262Z,9.40
2022-11-17T22:11:34.998Z,9.40
2022-11-17T22:14:13.707Z,9.30
2022-11-17T22:16:43.838Z,9.30
2022-11-17T22:19:12.613Z,9.30
2022-11-17T22:21:41.441Z,9.30
2022-11-17T22:24:10.726Z,9.30
2022-11-17T22:26:40.956Z,9.30
2022-11-17T22:29:15.191Z,9.20
2022-11-17T22:31:44.115Z,9.20
2022-11-17T22:34:12.721Z,9.20
2022-11-17T22:36:40.138Z,9.30
2022-11-17T22:39:09.297Z,9.30
2022-11-17T22:41:36.689Z,9.30
2022-11-17T22:44:04.235Z,9.30
2022-11-17T22:46:31.895Z,9.30
2022-11-17T22:48:59.266Z,9.30
2022-11-17T22:51:45.439Z,9.20
2022-11-17T22:54:12.944Z,9.20
2022-11-17T22:56:40.430Z,9.20
2022-11-17T22:59:07.812Z,9.20
2022-11-17T23:01:35.294Z,9.10
2022-11-17T23:04:02.756Z,9.10
2022-11-17T23:06:30.187Z,9.10
2022-11-17T23:08:59.384Z,9.10
2022-11-17T23:11:36.926Z,9.10
2022-11-17T23:14:07.980Z,9.10
2022-11-17T23:16:36.758Z,9.00
2022-11-17T23:19:04.761Z,9.00
2022-11-17T23:21:32.359Z,9.10
2022-11-17T23:23:59.761Z,9.00
2022-11-17T23:26:27.432Z,9.00
2022-11-17T23:28:54.942Z,9.00
2022-11-17T23:31:22.268Z,9.00
2022-11-17T23:33:49.653Z,9.00
2022-11-17T23:36:19.287Z,9.00
2022-11-17T23:38:47.333Z,9.00
2022-11-17T23:41:16.903Z,9.00
2022-11-17T23:43:44.679Z,9.00
2022-11-17T23:46:15.021Z,9.00
2022-11-17T23:48:43.599Z,9.00
2022-11-17T23:51:20.068Z,9.10
2022-11-17T23:53:47.900Z,9.10
2022-11-17T23:56:15.681Z,9.10
2022-11-17T23:58:44.179Z,9.10
